Time;durP1;ratioP1;P1;durP2;ratioP2;P2;SDS_P1;SDS_P2;PMS_P1;PMS_P2;Temp;Humidity;BMP_temperature;BMP_pressure;BME280_temperature;BME280_humidity;BME280_pressure;Samples;Min_cycle;Max_cycle;Signal;HPM_P1;HPM_P2
2023/07/16 00:00:10;;;;;;;5.00;1.80;;;16.70;99.90;;;;;;5012725;28;20045;-63
2023/07/16 00:02:38;;;;;;;5.75;2.22;;;16.70;99.90;;;;;;5012464;28;20089;-62
2023/07/16 00:05:04;;;;;;;3.40;1.70;;;16.70;99.90;;;;;;5012220;28;20105;-62
2023/07/16 00:07:29;;;;;;;3.25;1.80;;;16.70;99.90;;;;;;5012429;28;20397;-63
2023/07/16 00:09:55;;;;;;;5.00;2.35;;;17.30;54.50;;;;;;5012843;28;20038;-63
2023/07/16 00:12:20;;;;;;;7.10;2.45;;;16.40;99.90;;;;;;5016249;28;20474;-63
2023/07/16 00:14:48;;;;;;;6.43;2.08;;;16.50;99.90;;;;;;5016115;28;20045;-62
2023/07/16 00:17:13;;;;;;;5.18;1.85;;;16.50;99.90;;;;;;5016123;28;20049;-63
2023/07/16 00:19:39;;;;;;;4.72;2.10;;;16.50;99.90;;;;;;5016143;28;20041;-68
2023/07/16 00:22:05;;;;;;;4.43;1.90;;;16.90;99.90;;;;;;5016076;28;20425;-62
2023/07/16 00:24:30;;;;;;;7.40;1.98;;;16.50;99.90;;;;;;5016232;28;20052;-62
2023/07/16 00:26:56;;;;;;;5.30;1.70;;;16.50;1.00;;;;;;5015993;28;20526;-63
2023/07/16 00:29:22;;;;;;;6.07;1.73;;;16.50;1.00;;;;;;5015903;28;20044;-63
2023/07/16 00:31:48;;;;;;;3.90;2.10;;;16.40;1.00;;;;;;5015922;28;20100;-63
2023/07/16 00:34:13;;;;;;;3.88;2.00;;;16.40;1.00;;;;;;5014260;28;20056;-62
2023/07/16 00:36:39;;;;;;;4.43;2.10;;;16.40;9.20;;;;;;5015843;28;20466;-62
2023/07/16 00:39:05;;;;;;;3.60;1.58;;;16.40;10.90;;;;;;5015782;28;20081;-62
2023/07/16 00:41:31;;;;;;;10.10;2.08;;;16.20;30.20;;;;;;5015767;28;20497;-63
2023/07/16 00:43:56;;;;;;;6.18;2.00;;;16.40;26.30;;;;;;5015276;28;20048;-63
2023/07/16 00:46:23;;;;;;;5.03;2.40;;;16.40;20.90;;;;;;5015385;28;20046;-62
2023/07/16 00:48:49;;;;;;;6.75;2.17;;;16.40;15.00;;;;;;5015277;28;20042;-63
2023/07/16 00:51:14;;;;;;;5.82;2.10;;;16.50;14.50;;;;;;5015996;28;20087;-63
2023/07/16 00:53:42;;;;;;;4.63;2.20;;;16.40;3.80;;;;;;5014390;28;20407;-63
2023/07/16 00:56:09;;;;;;;6.65;2.20;;;16.40;1.00;;;;;;5015456;28;20045;-63
2023/07/16 00:58:34;;;;;;;5.68;2.15;;;17.00;1.00;;;;;;5015296;28;20430;-63
2023/07/16 01:01:00;;;;;;;7.18;2.55;;;16.40;1.00;;;;;;5015310;28;20128;-62
2023/07/16 01:03:26;;;;;;;6.40;2.33;;;16.40;1.00;;;;;;5014895;28;20054;-63
2023/07/16 01:06:09;;;;;;;4.68;1.70;;;16.40;1.00;;;;;;5015248;28;20478;-63
2023/07/16 01:08:38;;;;;;;6.47;2.20;;;16.30;1.00;;;;;;5015248;28;20621;-63
2023/07/16 01:11:04;;;;;;;4.15;1.75;;;16.30;1.00;;;;;;5013519;28;20045;-63
2023/07/16 01:13:31;;;;;;;9.07;2.38;;;16.20;1.00;;;;;;5014786;28;20042;-63
2023/07/16 01:15:56;;;;;;;7.40;2.40;;;16.30;1.00;;;;;;5015098;28;20034;-63
2023/07/16 01:18:22;;;;;;;4.35;1.90;;;16.90;1.00;;;;;;5015039;28;20510;-63
2023/07/16 01:20:48;;;;;;;3.78;2.03;;;17.10;1.00;;;;;;5014322;28;20038;-62
2023/07/16 01:23:33;;;;;;;8.52;2.65;;;16.20;6.30;;;;;;5014573;28;20033;-63
2023/07/16 01:26:02;;;;;;;7.18;2.00;;;16.30;3.20;;;;;;5003500;28;20053;-63
2023/07/16 01:28:43;;;;;;;3.80;1.92;;;16.70;7.40;;;;;;5014835;28;20486;-62
2023/07/16 01:31:10;;;;;;;6.43;2.10;;;16.20;10.80;;;;;;5014831;28;20140;-63
2023/07/16 01:33:37;;;;;;;6.18;1.83;;;16.10;11.00;;;;;;5014761;28;20071;-62
2023/07/16 01:36:04;;;;;;;12.52;2.17;;;16.10;17.10;;;;;;5014351;28;20042;-63
2023/07/16 01:38:30;;;;;;;8.38;2.28;;;16.10;11.80;;;;;;5013302;28;20536;-62
2023/07/16 01:40:56;;;;;;;5.15;1.92;;;16.10;12.90;;;;;;5013181;28;20077;-62
2023/07/16 01:43:21;;;;;;;3.67;1.70;;;16.40;14.50;;;;;;5013343;28;20125;-63
2023/07/16 01:45:47;;;;;;;4.97;2.22;;;16.10;14.80;;;;;;5014461;28;20041;-62
2023/07/16 01:48:34;;;;;;;7.72;2.22;;;16.00;23.70;;;;;;5014095;28;20393;-63
2023/07/16 01:51:00;;;;;;;8.07;2.25;;;16.00;24.60;;;;;;5014469;28;20042;-63
2023/07/16 01:53:25;;;;;;;3.90;2.05;;;16.10;27.20;;;;;;5014029;28;20455;-62
2023/07/16 01:55:51;;;;;;;5.47;2.13;;;16.10;12.60;;;;;;5014066;28;20046;-62
2023/07/16 01:58:17;;;;;;;6.50;2.42;;;16.10;1.90;;;;;;5014269;28;20046;-62
2023/07/16 02:00:42;;;;;;;9.57;2.40;;;16.10;1.00;;;;;;5014215;28;20037;-63
2023/07/16 02:03:08;;;;;;;4.15;2.15;;;16.10;1.00;;;;;;5013923;28;20523;-63
2023/07/16 02:05:34;;;;;;;5.90;2.17;;;16.10;1.00;;;;;;5013734;28;20490;-62
2023/07/16 02:07:59;;;;;;;5.93;2.53;;;16.60;1.00;;;;;;5014100;28;20048;-62
2023/07/16 02:10:25;;;;;;;6.07;2.78;;;16.40;1.00;;;;;;5013871;28;20030;-62
2023/07/16 02:12:51;;;;;;;7.25;2.50;;;16.40;1.00;;;;;;5012802;28;20037;-62
2023/07/16 02:15:17;;;;;;;5.72;2.55;;;16.20;1.00;;;;;;5013958;28;20034;-62
2023/07/16 02:17:43;;;;;;;6.07;2.65;;;16.10;1.00;;;;;;5013667;28;20460;-62
2023/07/16 02:20:13;;;;;;;5.85;2.70;;;16.10;1.00;;;;;;5013884;28;20050;-63
2023/07/16 02:22:39;;;;;;;5.30;2.65;;;16.20;99.90;;;;;;5012626;28;20474;-62
2023/07/16 02:25:05;;;;;;;9.13;2.92;;;16.20;99.90;;;;;;5013422;28;20088;-66
2023/07/16 02:27:31;;;;;;;5.32;2.55;;;16.20;99.90;;;;;;5013465;28;20041;-62
2023/07/16 02:29:57;;;;;;;6.88;2.85;;;16.20;99.90;;;;;;5013766;28;20121;-62
2023/07/16 02:32:23;;;;;;;4.82;2.75;;;16.20;99.90;;;;;;5013034;28;20156;-62
2023/07/16 02:34:48;;;;;;;7.95;2.80;;;16.20;99.90;;;;;;5013638;28;20481;-62
2023/07/16 02:37:14;;;;;;;8.10;3.13;;;16.20;1.00;;;;;;5013588;28;20077;-62
2023/07/16 02:39:41;;;;;;;6.78;2.83;;;16.20;1.00;;;;;;5013608;28;20077;-62
2023/07/16 02:42:07;;;;;;;8.90;2.92;;;16.50;99.90;;;;;;5013546;28;20422;-63
2023/07/16 02:44:32;;;;;;;8.05;3.17;;;16.20;1.00;;;;;;5013430;28;20038;-63
2023/07/16 02:46:58;;;;;;;9.93;3.53;;;16.30;99.90;;;;;;5013395;28;20626;-63
2023/07/16 02:49:24;;;;;;;6.15;3.13;;;16.20;99.90;;;;;;5013428;28;20470;-62
2023/07/16 02:51:49;;;;;;;9.20;3.55;;;16.30;99.90;;;;;;5013434;28;20041;-62
2023/07/16 02:54:15;;;;;;;9.60;3.47;;;16.30;99.90;;;;;;5013400;28;20046;-62
2023/07/16 02:56:40;;;;;;;6.47;2.90;;;16.30;1.00;;;;;;5013348;28;20038;-63
2023/07/16 02:59:06;;;;;;;5.75;2.92;;;16.30;99.90;;;;;;5013291;28;20397;-62
2023/07/16 03:01:31;;;;;;;4.20;2.63;;;16.10;99.90;;;;;;5013212;28;20045;-62
2023/07/16 03:03:57;;;;;;;9.35;2.90;;;16.30;1.00;;;;;;5012777;28;20052;-62
2023/07/16 03:06:23;;;;;;;6.05;3.22;;;16.30;1.00;;;;;;5013220;28;20046;-62
2023/07/16 03:08:48;;;;;;;12.10;3.22;;;16.20;99.90;;;;;;5013314;28;20073;-62
2023/07/16 03:11:14;;;;;;;5.53;2.60;;;16.20;1.00;;;;;;5013140;28;20106;-63
2023/07/16 03:13:40;;;;;;;4.57;2.63;;;16.20;99.90;;;;;;5012751;28;20107;-63
2023/07/16 03:16:05;;;;;;;6.40;3.10;;;16.20;24.00;;;;;;5013110;28;20048;-63
2023/07/16 03:18:31;;;;;;;8.57;3.08;;;16.10;99.90;;;;;;5013053;28;20041;-63
2023/07/16 03:20:57;;;;;;;11.07;3.10;;;16.00;98.60;;;;;;5013068;28;20536;-63
2023/07/16 03:23:24;;;;;;;7.97;3.10;;;16.10;1.00;;;;;;5013064;28;20046;-63
2023/07/16 03:25:50;;;;;;;5.78;2.55;;;16.10;37.40;;;;;;5012771;28;20169;-63
2023/07/16 03:28:16;;;;;;;5.75;2.75;;;16.00;99.90;;;;;;5013023;28;20084;-63
2023/07/16 03:30:47;;;;;;;7.40;3.10;;;16.00;99.90;;;;;;5013073;28;20390;-63
2023/07/16 03:33:12;;;;;;;5.07;2.55;;;16.00;99.90;;;;;;5012965;28;20051;-63
2023/07/16 03:35:38;;;;;;;7.70;3.00;;;16.00;99.90;;;;;;5012653;28;20049;-63
2023/07/16 03:38:03;;;;;;;9.27;3.35;;;16.00;99.90;;;;;;5012912;28;20034;-63
2023/07/16 03:40:30;;;;;;;6.88;3.40;;;16.00;99.90;;;;;;5012974;28;20048;-62
2023/07/16 03:42:56;;;;;;;9.02;3.78;;;16.00;99.90;;;;;;5013137;28;20056;-63
2023/07/16 03:45:21;;;;;;;6.63;2.92;;;15.80;1.00;;;;;;5016694;28;20393;-62
2023/07/16 03:47:47;;;;;;;8.13;3.70;;;16.00;13.60;;;;;;5016736;28;20474;-62
2023/07/16 03:50:12;;;;;;;6.25;2.70;;;15.80;1.00;;;;;;5016762;28;20481;-62
2023/07/16 03:52:38;;;;;;;6.47;3.10;;;16.00;1.00;;;;;;5016697;28;20034;-62
2023/07/16 03:55:04;;;;;;;7.10;3.05;;;16.00;99.90;;;;;;5016595;28;20046;-63
2023/07/16 03:57:30;;;;;;;6.68;3.25;;;16.00;1.00;;;;;;5016339;28;20525;-62
2023/07/16 03:59:56;;;;;;;10.55;3.28;;;16.00;1.00;;;;;;5016552;28;20073;-62
2023/07/16 04:02:22;;;;;;;6.95;3.28;;;16.00;1.00;;;;;;5016299;28;20050;-63
2023/07/16 04:04:47;;;;;;;13.15;3.95;;;16.70;1.00;;;;;;5016372;28;20042;-62
2023/07/16 04:07:13;;;;;;;7.07;3.13;;;16.00;99.90;;;;;;5016293;28;20125;-63
2023/07/16 04:09:39;;;;;;;8.48;3.42;;;16.00;99.90;;;;;;5016376;28;20044;-63
2023/07/16 04:12:07;;;;;;;6.25;3.38;;;16.10;99.90;;;;;;5016003;28;20038;-62
2023/07/16 04:14:33;;;;;;;8.77;3.70;;;16.10;1.00;;;;;;5015962;28;20038;-63
2023/07/16 04:16:59;;;;;;;6.82;3.55;;;16.00;1.00;;;;;;5016116;28;20084;-62
2023/07/16 04:19:24;;;;;;;5.60;3.28;;;16.00;1.00;;;;;;5016199;28;20037;-62
2023/07/16 04:21:50;;;;;;;10.40;3.78;;;16.00;99.90;;;;;;5016159;28;20056;-63
2023/07/16 04:24:16;;;;;;;7.72;3.55;;;16.00;11.50;;;;;;5015958;28;20046;-62
2023/07/16 04:26:41;;;;;;;8.52;3.53;;;16.60;99.90;;;;;;5015678;28;20034;-62
2023/07/16 04:29:07;;;;;;;5.82;2.90;;;16.70;99.90;;;;;;5015958;28;20046;-62
2023/07/16 04:31:32;;;;;;;8.73;3.13;;;16.10;21.40;;;;;;5015955;28;20037;-62
2023/07/16 04:33:58;;;;;;;7.60;3.40;;;16.10;1.00;;;;;;5015871;28;20168;-62
2023/07/16 04:36:23;;;;;;;10.32;3.63;;;16.10;99.90;;;;;;5015871;28;20371;-62
2023/07/16 04:38:49;;;;;;;9.63;3.08;;;16.10;80.50;;;;;;5015523;28;20104;-62
2023/07/16 04:41:16;;;;;;;6.05;3.45;;;16.20;99.90;;;;;;5015444;28;20041;-63
2023/07/16 04:43:41;;;;;;;9.27;3.20;;;16.20;99.90;;;;;;5015702;28;20034;-62
2023/07/16 04:46:07;;;;;;;6.43;3.53;;;16.20;99.90;;;;;;5015581;28;20474;-62
2023/07/16 04:48:33;;;;;;;9.63;3.55;;;16.20;99.90;;;;;;5015715;28;20065;-63
2023/07/16 04:50:59;;;;;;;7.95;3.53;;;16.30;99.90;;;;;;5015545;28;20061;-62
2023/07/16 04:53:25;;;;;;;8.10;3.67;;;16.30;99.90;;;;;;5015606;28;20042;-62
2023/07/16 04:55:51;;;;;;;5.57;2.83;;;16.30;99.90;;;;;;5014686;28;20044;-62
2023/07/16 04:58:16;;;;;;;13.13;3.60;;;16.30;99.90;;;;;;5014287;28;20456;-62
2023/07/16 05:00:42;;;;;;;14.27;3.92;;;16.30;99.90;;;;;;5015477;28;20041;-62
2023/07/16 05:03:08;;;;;;;6.25;3.20;;;16.40;99.90;;;;;;5015086;28;20108;-63
2023/07/16 05:05:34;;;;;;;9.15;3.35;;;16.40;99.90;;;;;;5014925;28;20548;-62
2023/07/16 05:08:00;;;;;;;9.98;3.00;;;16.40;99.90;;;;;;5015184;28;20041;-62
2023/07/16 05:10:27;;;;;;;4.93;2.67;;;16.50;99.90;;;;;;5015278;28;20088;-62
2023/07/16 05:12:52;;;;;;;12.45;3.33;;;16.50;99.90;;;;;;5015154;28;20374;-62
2023/07/16 05:15:18;;;;;;;5.28;3.20;;;16.60;99.90;;;;;;5014783;28;20053;-62
2023/07/16 05:17:43;;;;;;;9.23;3.10;;;16.60;99.90;;;;;;5015288;28;20042;-63
2023/07/16 05:20:10;;;;;;;6.35;3.03;;;16.60;99.90;;;;;;5015030;28;20046;-62
2023/07/16 05:22:35;;;;;;;10.27;3.33;;;16.70;99.90;;;;;;5015089;28;20319;-63
2023/07/16 05:25:01;;;;;;;5.97;3.38;;;16.80;99.90;;;;;;5014864;28;20046;-62
2023/07/16 05:27:27;;;;;;;6.25;2.90;;;16.60;95.10;;;;;;5013428;28;20042;-65
2023/07/16 05:29:53;;;;;;;6.95;3.00;;;16.80;41.10;;;;;;5014793;28;20038;-62
2023/07/16 05:32:19;;;;;;;6.32;3.10;;;16.90;78.80;;;;;;5014831;28;20042;-62
2023/07/16 05:34:44;;;;;;;5.95;3.00;;;16.90;1.00;;;;;;5014659;28;20038;-62
2023/07/16 05:37:10;;;;;;;7.03;3.08;;;16.90;1.00;;;;;;5014689;28;20489;-62
2023/07/16 05:39:35;;;;;;;7.05;2.75;;;17.00;99.90;;;;;;5014426;28;20060;-63
2023/07/16 05:42:04;;;;;;;8.05;3.08;;;17.10;99.90;;;;;;5014593;28;20042;-62
2023/07/16 05:44:30;;;;;;;5.97;3.03;;;17.10;99.90;;;;;;5014581;28;20460;-62
2023/07/16 05:46:55;;;;;;;9.88;3.20;;;17.20;99.90;;;;;;5014489;28;20042;-62
2023/07/16 05:49:21;;;;;;;6.15;2.40;;;17.20;99.90;;;;;;5014478;28;20049;-62
2023/07/16 05:51:46;;;;;;;8.45;2.88;;;17.30;99.90;;;;;;5014473;28;20473;-63
2023/07/16 05:54:12;;;;;;;6.30;2.85;;;17.40;99.90;;;;;;5014401;28;20046;-62
2023/07/16 05:56:38;;;;;;;8.80;2.75;;;17.40;99.90;;;;;;5014388;28;20478;-62
2023/07/16 05:59:03;;;;;;;8.15;2.88;;;17.40;37.00;;;;;;5014335;28;20069;-62
2023/07/16 06:01:29;;;;;;;5.95;3.25;;;17.50;1.00;;;;;;5014322;28;20509;-63
2023/07/16 06:03:54;;;;;;;9.57;3.08;;;17.80;1.00;;;;;;5013734;28;20127;-63
2023/07/16 06:06:20;;;;;;;9.20;3.20;;;17.60;1.00;;;;;;5013940;28;20058;-62
2023/07/16 06:08:46;;;;;;;7.43;2.58;;;17.60;99.90;;;;;;5014164;28;20033;-63
2023/07/16 06:11:12;;;;;;;6.25;2.70;;;17.70;1.00;;;;;;5014013;28;20037;-62
2023/07/16 06:13:38;;;;;;;8.60;2.90;;;17.70;99.90;;;;;;5012684;28;20030;-62
2023/07/16 06:16:04;;;;;;;5.90;2.90;;;17.80;99.90;;;;;;5013729;28;20401;-62
2023/07/16 06:18:30;;;;;;;7.25;3.10;;;17.90;99.90;;;;;;5012413;28;20041;-63
2023/07/16 06:20:55;;;;;;;10.13;2.90;;;18.10;99.90;;;;;;5013930;28;20073;-67
2023/07/16 06:23:21;;;;;;;8.82;3.28;;;17.90;99.90;;;;;;5013878;28;20129;-67
2023/07/16 06:25:48;;;;;;;9.40;3.42;;;18.10;99.90;;;;;;5013773;28;20064;-67
2023/07/16 06:28:14;;;;;;;8.57;2.85;;;18.10;99.90;;;;;;5013782;28;20037;-67
2023/07/16 06:30:40;;;;;;;6.22;3.05;;;18.10;99.90;;;;;;5013514;28;20045;-67
2023/07/16 06:33:06;;;;;;;7.13;3.22;;;18.10;99.90;;;;;;5013782;28;20037;-66
2023/07/16 06:35:32;;;;;;;7.70;2.97;;;18.20;99.90;;;;;;5013600;28;20077;-68
2023/07/16 06:37:58;;;;;;;7.43;3.53;;;18.20;99.90;;;;;;5013624;28;20124;-67
2023/07/16 06:40:24;;;;;;;7.47;3.10;;;18.30;99.90;;;;;;5011935;28;20077;-68
2023/07/16 06:42:50;;;;;;;6.55;3.15;;;18.30;99.90;;;;;;5013306;28;20406;-65
2023/07/16 06:45:17;;;;;;;9.40;3.55;;;18.40;99.90;;;;;;5013431;28;20037;-66
2023/07/16 06:47:43;;;;;;;7.68;3.85;;;18.40;99.90;;;;;;5013486;28;20095;-73
2023/07/16 06:50:09;;;;;;;5.80;2.92;;;18.50;99.90;;;;;;5012207;28;20046;-67
2023/07/16 06:52:34;;;;;;;6.90;3.33;;;18.40;99.90;;;;;;5013375;28;20490;-67
2023/07/16 06:55:00;;;;;;;5.47;3.33;;;18.60;99.90;;;;;;5013054;28;20121;-67
2023/07/16 06:57:26;;;;;;;6.47;3.17;;;19.00;99.90;;;;;;5013342;28;20038;-66
2023/07/16 06:59:52;;;;;;;8.00;3.45;;;18.50;99.90;;;;;;5013344;28;20034;-65
2023/07/16 07:02:18;;;;;;;6.72;3.05;;;18.50;99.90;;;;;;5013132;28;20044;-65
2023/07/16 07:04:44;;;;;;;6.95;3.58;;;18.50;99.90;;;;;;5013204;28;20370;-66
2023/07/16 07:07:09;;;;;;;8.00;3.15;;;18.60;99.90;;;;;;5013220;28;20056;-66
2023/07/16 07:09:35;;;;;;;10.15;3.05;;;18.60;99.90;;;;;;5013291;28;20033;-61
2023/07/16 07:12:01;;;;;;;9.10;3.40;;;18.90;99.90;;;;;;5013198;28;20037;-65
2023/07/16 07:14:27;;;;;;;6.50;3.50;;;19.30;99.90;;;;;;5013002;28;20092;-65
2023/07/16 07:16:53;;;;;;;8.98;3.65;;;19.00;99.90;;;;;;5012869;28;20041;-66
2023/07/16 07:19:18;;;;;;;5.10;2.95;;;18.70;99.90;;;;;;5012776;28;20069;-67
2023/07/16 07:21:44;;;;;;;7.32;3.13;;;19.70;99.90;;;;;;5013170;28;20605;-68
2023/07/16 07:24:09;;;;;;;7.68;3.53;;;19.00;99.90;;;;;;5012805;28;20046;-65
2023/07/16 07:26:35;;;;;;;9.55;3.22;;;19.10;99.90;;;;;;5013094;28;20120;-64
2023/07/16 07:29:01;;;;;;;7.35;3.03;;;19.30;99.90;;;;;;5012705;28;20038;-64
2023/07/16 07:31:26;;;;;;;11.00;3.55;;;19.40;99.90;;;;;;5013055;28;20037;-62
2023/07/16 07:33:53;;;;;;;8.45;3.42;;;19.60;99.90;;;;;;5012929;28;20481;-64
2023/07/16 07:36:19;;;;;;;6.43;3.17;;;19.70;99.90;;;;;;5013291;28;20045;-64
2023/07/16 07:38:45;;;;;;;8.55;2.90;;;19.70;99.90;;;;;;5013105;28;20048;-64
2023/07/16 07:41:11;;;;;;;7.18;3.08;;;19.80;99.90;;;;;;5028025;28;20073;-63
2023/07/16 07:43:36;;;;;;;8.35;3.05;;;19.80;99.90;;;;;;5012836;28;20453;-63
2023/07/16 07:46:02;;;;;;;5.60;3.28;;;20.60;99.90;;;;;;5012818;28;20489;-63
2023/07/16 07:48:27;;;;;;;7.97;2.80;;;19.80;99.90;;;;;;5012855;28;20042;-64
2023/07/16 07:50:53;;;;;;;8.65;3.10;;;19.70;99.90;;;;;;5012496;28;20500;-61
2023/07/16 07:53:19;;;;;;;8.95;3.20;;;19.70;99.90;;;;;;5012429;28;20041;-64
2023/07/16 07:55:45;;;;;;;8.23;2.88;;;19.70;99.90;;;;;;5012561;28;20129;-64
2023/07/16 07:58:11;;;;;;;7.03;2.90;;;19.60;99.90;;;;;;5012387;28;20050;-64
2023/07/16 08:00:37;;;;;;;7.40;3.28;;;19.80;99.90;;;;;;5012732;28;20034;-63
2023/07/16 08:03:03;;;;;;;7.90;3.10;;;19.90;99.90;;;;;;5012412;28;20060;-63
2023/07/16 08:05:29;;;;;;;9.32;3.13;;;19.80;99.90;;;;;;5012689;28;20042;-64
2023/07/16 08:07:55;;;;;;;6.05;3.22;;;19.90;99.90;;;;;;5012814;28;20049;-64
2023/07/16 08:10:21;;;;;;;6.47;2.85;;;20.00;99.90;;;;;;5012632;28;20115;-63
2023/07/16 08:12:47;;;;;;;8.43;3.45;;;20.10;99.90;;;;;;5012726;28;20109;-63
2023/07/16 08:15:16;;;;;;;6.00;3.15;;;20.10;99.90;;;;;;5011370;28;20168;-64
2023/07/16 08:17:42;;;;;;;8.25;3.47;;;20.10;99.90;;;;;;5012424;28;20111;-64
2023/07/16 08:20:08;;;;;;;7.35;2.70;;;20.00;96.20;;;;;;5012382;28;20049;-65
2023/07/16 08:22:34;;;;;;;8.65;3.08;;;19.90;94.70;;;;;;5012319;28;20038;-65
2023/07/16 08:25:00;;;;;;;6.90;2.90;;;19.90;95.10;;;;;;5012419;28;20172;-65
2023/07/16 08:27:25;;;;;;;6.95;3.88;;;20.00;93.90;;;;;;5011312;28;20141;-69
2023/07/16 08:29:51;;;;;;;7.18;3.58;;;20.00;94.80;;;;;;5012483;28;20057;-65
2023/07/16 08:32:16;;;;;;;7.95;3.05;;;20.10;95.10;;;;;;5015795;28;20042;-65
2023/07/16 08:34:42;;;;;;;5.38;2.53;;;20.00;95.70;;;;;;5015784;28;20401;-64
2023/07/16 08:37:07;;;;;;;7.43;3.15;;;20.10;95.00;;;;;;5015724;28;20084;-64
2023/07/16 08:39:33;;;;;;;7.03;2.67;;;19.80;92.00;;;;;;5015370;28;20041;-64
2023/07/16 08:41:59;;;;;;;8.27;2.65;;;20.10;91.60;;;;;;5015609;28;20042;-65
2023/07/16 08:44:26;;;;;;;8.20;3.60;;;20.20;92.20;;;;;;5015189;28;20104;-65
2023/07/16 08:46:52;;;;;;;6.10;3.05;;;20.20;90.30;;;;;;5015490;28;20052;-65
2023/07/16 08:49:19;;;;;;;7.60;3.20;;;20.20;85.20;;;;;;5015231;28;20121;-65
2023/07/16 08:51:48;;;;;;;9.25;3.53;;;20.10;83.70;;;;;;5015593;28;20113;-65
2023/07/16 08:54:16;;;;;;;7.20;3.25;;;20.20;76.30;;;;;;5015576;28;20038;-66
2023/07/16 08:56:45;;;;;;;7.75;3.25;;;20.50;80.40;;;;;;5013958;28;20049;-67
2023/07/16 08:59:11;;;;;;;9.05;3.45;;;20.10;77.30;;;;;;5015497;28;20045;-65
2023/07/16 09:01:37;;;;;;;5.85;3.17;;;20.20;78.90;;;;;;5030793;28;20042;-65
2023/07/16 09:04:03;;;;;;;8.20;3.53;;;20.20;79.00;;;;;;5014818;28;20062;-65
2023/07/16 09:06:29;;;;;;;7.72;3.55;;;20.20;81.30;;;;;;5015119;28;20173;-66
2023/07/16 09:08:55;;;;;;;5.35;3.15;;;20.10;79.90;;;;;;5015284;28;20049;-65
2023/07/16 09:11:22;;;;;;;7.15;3.40;;;20.10;76.50;;;;;;5015239;28;20378;-65
2023/07/16 09:13:48;;;;;;;7.13;2.72;;;20.70;79.20;;;;;;5013611;28;20069;-68
2023/07/16 09:16:17;;;;;;;6.78;3.63;;;20.60;79.50;;;;;;5015254;28;20058;-66
2023/07/16 09:18:43;;;;;;;5.90;2.83;;;20.50;81.30;;;;;;5013870;28;20046;-68
2023/07/16 09:21:09;;;;;;;8.05;3.50;;;20.90;78.80;;;;;;5013528;28;20478;-67
2023/07/16 09:23:35;;;;;;;6.65;3.60;;;20.80;75.00;;;;;;5014793;28;20042;-72
2023/07/16 09:26:03;;;;;;;6.82;3.10;;;21.10;75.50;;;;;;4997163;28;20042;-67
2023/07/16 09:28:30;;;;;;;7.55;3.08;;;20.80;72.20;;;;;;4997105;28;20049;-66
2023/07/16 09:31:03;;;;;;;8.38;3.47;;;20.60;69.10;;;;;;5014891;28;20042;-66
2023/07/16 09:33:31;;;;;;;8.40;2.95;;;20.50;66.40;;;;;;5014902;28;20536;-66
2023/07/16 09:35:56;;;;;;;6.20;2.85;;;20.40;66.70;;;;;;4996928;28;20100;-67
2023/07/16 09:38:24;;;;;;;9.95;2.97;;;20.30;68.40;;;;;;5014687;28;20478;-62
2023/07/16 09:40:52;;;;;;;5.32;2.28;;;20.40;68.10;;;;;;5014399;28;20422;-65
2023/07/16 09:43:18;;;;;;;9.70;3.22;;;20.30;62.30;;;;;;5014671;28;20057;-68
2023/07/16 09:45:43;;;;;;;9.52;3.00;;;20.20;61.60;;;;;;5013082;28;20474;-69
2023/07/16 09:48:09;;;;;;;7.07;2.95;;;20.10;61.90;;;;;;5014226;28;20563;-66
2023/07/16 09:50:36;;;;;;;5.47;2.97;;;20.20;61.90;;;;;;5014049;28;20124;-66
2023/07/16 09:53:05;;;;;;;5.57;3.25;;;20.30;65.30;;;;;;5014339;28;20091;-65
2023/07/16 09:55:35;;;;;;;6.53;2.90;;;20.30;57.50;;;;;;5012614;28;20095;-65
2023/07/16 09:58:08;;;;;;;5.18;2.70;;;20.30;59.30;;;;;;5013915;28;20048;-65
2023/07/16 10:00:37;;;;;;;6.35;3.58;;;20.30;61.70;;;;;;5013917;28;20038;-65
2023/07/16 10:03:05;;;;;;;4.50;2.50;;;20.30;61.80;;;;;;5013817;28;20057;-65
2023/07/16 10:05:31;;;;;;;6.57;2.85;;;20.60;60.50;;;;;;5013710;28;20057;-65
2023/07/16 10:07:59;;;;;;;5.72;2.92;;;20.50;57.20;;;;;;5014060;28;20046;-65
2023/07/16 10:10:37;;;;;;;5.47;2.42;;;20.80;61.10;;;;;;5013936;28;20045;-67
2023/07/16 10:13:03;;;;;;;7.03;3.03;;;20.80;58.00;;;;;;5013927;28;20034;-66
2023/07/16 10:15:29;;;;;;;5.30;2.95;;;21.10;54.10;;;;;;5014139;28;20041;-72
2023/07/16 10:17:56;;;;;;;5.10;2.70;;;21.10;52.90;;;;;;5012477;28;20037;-72
2023/07/16 10:20:36;;;;;;;3.88;2.40;;;21.30;53.80;;;;;;5012343;28;20092;-68
2023/07/16 10:23:16;;;;;;;8.25;3.20;;;21.30;52.10;;;;;;5013992;28;20133;-67
2023/07/16 10:25:58;;;;;;;6.90;2.50;;;21.30;54.70;;;;;;5013825;28;20052;-66
2023/07/16 10:28:24;;;;;;;8.50;3.00;;;21.10;50.40;;;;;;5012658;28;20042;-72
2023/07/16 10:30:50;;;;;;;6.07;2.78;;;21.10;49.30;;;;;;5012756;28;20053;-67
2023/07/16 10:33:15;;;;;;;4.93;2.85;;;21.10;48.50;;;;;;5012288;28;20042;-68
2023/07/16 10:35:42;;;;;;;7.20;2.78;;;20.80;48.80;;;;;;5012544;28;20490;-70
2023/07/16 10:38:08;;;;;;;11.02;3.58;;;21.10;49.10;;;;;;5013884;28;20041;-65
2023/07/16 10:40:40;;;;;;;5.97;3.20;;;21.10;49.20;;;;;;5013657;28;20065;-66
2023/07/16 10:43:06;;;;;;;9.48;2.90;;;20.90;45.70;;;;;;5013716;28;20053;-65
2023/07/16 10:45:32;;;;;;;7.03;3.25;;;21.00;47.80;;;;;;5013588;28;20505;-66
2023/07/16 10:47:57;;;;;;;7.70;3.60;;;20.80;49.00;;;;;;5013625;28;20034;-65
2023/07/16 10:50:23;;;;;;;6.30;3.17;;;20.80;48.60;;;;;;5013443;28;20431;-66
2023/07/16 10:52:53;;;;;;;7.90;3.22;;;20.70;50.20;;;;;;5012590;28;20073;-65
2023/07/16 10:55:19;;;;;;;4.97;2.90;;;20.80;50.30;;;;;;5013480;28;20139;-67
2023/07/16 10:57:48;;;;;;;6.60;3.20;;;20.80;47.20;;;;;;5013457;28;20095;-67
2023/07/16 11:00:15;;;;;;;7.07;3.00;;;20.80;47.50;;;;;;5012139;28;20068;-67
2023/07/16 11:02:43;;;;;;;7.55;3.40;;;20.80;50.10;;;;;;5011780;28;20417;-67
2023/07/16 11:05:15;;;;;;;4.70;2.63;;;21.00;53.70;;;;;;5013185;28;20123;-67
2023/07/16 11:07:48;;;;;;;6.72;3.00;;;21.10;50.40;;;;;;5011676;28;20038;-77
2023/07/16 11:10:15;;;;;;;6.60;3.05;;;21.00;48.30;;;;;;5013001;28;20034;-69
2023/07/16 11:12:42;;;;;;;9.43;3.42;;;21.00;48.60;;;;;;5011988;28;20394;-66
2023/07/16 11:15:08;;;;;;;5.47;2.53;;;21.00;47.90;;;;;;5012949;28;20046;-67
2023/07/16 11:17:36;;;;;;;5.97;2.55;;;21.00;45.20;;;;;;5013153;28;20494;-66
2023/07/16 11:20:04;;;;;;;5.50;2.75;;;21.10;47.60;;;;;;5013127;28;20038;-66
2023/07/16 11:22:29;;;;;;;5.63;2.70;;;21.00;47.70;;;;;;5013132;28;20413;-66
2023/07/16 11:24:55;;;;;;;6.70;2.70;;;21.10;44.20;;;;;;5013074;28;20120;-66
2023/07/16 11:27:21;;;;;;;6.32;2.90;;;21.10;45.10;;;;;;5011820;28;20096;-66
2023/07/16 11:29:58;;;;;;;5.18;2.38;;;21.10;43.50;;;;;;5012844;28;20081;-65
2023/07/16 11:32:41;;;;;;;5.45;2.65;;;21.10;43.00;;;;;;5012995;28;20049;-65
2023/07/16 11:35:07;;;;;;;4.78;2.85;;;21.10;40.90;;;;;;5012820;28;20064;-65
2023/07/16 11:37:34;;;;;;;7.38;2.67;;;21.00;42.40;;;;;;5012835;28;20049;-66
2023/07/16 11:40:06;;;;;;;9.70;3.42;;;21.30;42.90;;;;;;5012955;28;20117;-66
2023/07/16 11:42:40;;;;;;;5.38;2.63;;;21.10;42.50;;;;;;5012875;28;20041;-65
2023/07/16 11:45:17;;;;;;;8.00;2.92;;;21.00;56.90;;;;;;5012761;28;20065;-66
2023/07/16 11:47:43;;;;;;;6.22;2.92;;;20.90;44.20;;;;;;5013391;28;20439;-70
2023/07/16 11:50:09;;;;;;;7.72;2.92;;;20.80;45.60;;;;;;5011170;28;20093;-73
2023/07/16 11:52:34;;;;;;;4.93;2.42;;;20.80;44.50;;;;;;5011156;28;20485;-68
2023/07/16 11:55:00;;;;;;;5.03;2.85;;;20.60;41.10;;;;;;5011148;28;20072;-65
2023/07/16 11:57:25;;;;;;;5.22;3.17;;;20.50;41.90;;;;;;5012324;28;20176;-61
2023/07/16 11:59:51;;;;;;;4.57;2.22;;;20.50;42.00;;;;;;5012681;28;20041;-61
2023/07/16 12:02:17;;;;;;;6.35;3.05;;;20.40;40.90;;;;;;5012615;28;20042;-61
2023/07/16 12:04:43;;;;;;;4.82;2.92;;;20.50;42.00;;;;;;5014151;28;20474;-65
2023/07/16 12:07:08;;;;;;;5.15;3.00;;;20.40;42.20;;;;;;5016415;28;20042;-65
2023/07/16 12:09:34;;;;;;;7.07;3.30;;;20.50;41.80;;;;;;5016124;28;20038;-65
2023/07/16 12:12:00;;;;;;;4.45;2.95;;;20.40;42.00;;;;;;5016119;28;20121;-65
2023/07/16 12:14:26;;;;;;;8.38;2.85;;;20.30;41.40;;;;;;5016277;28;20038;-65
2023/07/16 12:16:52;;;;;;;7.35;2.90;;;20.30;39.60;;;;;;5016143;28;20037;-65
2023/07/16 12:19:18;;;;;;;4.65;3.05;;;20.40;41.10;;;;;;5016003;28;20137;-65
2023/07/16 12:21:43;;;;;;;5.75;3.03;;;21.10;45.80;;;;;;5015651;28;20048;-65
2023/07/16 12:24:09;;;;;;;6.68;3.05;;;20.90;44.80;;;;;;5015887;28;20054;-65
2023/07/16 12:26:35;;;;;;;6.82;2.92;;;21.10;46.70;;;;;;5030895;28;20042;-66
2023/07/16 12:29:05;;;;;;;4.15;2.22;;;21.40;48.90;;;;;;5015767;28;20088;-65
2023/07/16 12:31:34;;;;;;;5.40;2.58;;;21.60;48.00;;;;;;5015501;28;20061;-65
2023/07/16 12:34:04;;;;;;;9.38;2.85;;;21.50;42.90;;;;;;5015840;28;20041;-64
2023/07/16 12:36:30;;;;;;;7.95;3.05;;;21.20;42.40;;;;;;5015510;28;20049;-64
2023/07/16 12:38:55;;;;;;;5.78;3.20;;;21.00;41.60;;;;;;5015749;28;20041;-65
2023/07/16 12:41:21;;;;;;;7.22;2.65;;;21.00;43.10;;;;;;5015671;28;20390;-64
2023/07/16 12:43:47;;;;;;;5.47;2.97;;;20.90;45.40;;;;;;5015537;28;20038;-64